PWSweather.com
Personal Weather Stations
Station Observations
SPARKSRC
St. Petersburg, FL 33716

St. Petersburg, FL 33716

Lat: 27.876101, Lon: -82.657194

Elevation: 13

Station Type: Zephyr PWS-1000TD

Latest ConditionsUpdated 4:20:02 AM EDT Saturday, May 30, 2015
Currently Today's Max Today's Min Today's Average
Temperature 76.1°F24.5°C 79.9°F26.6°C 76.1°F24.5°C 77.7°F25.4°C
Dew Point 69.9°F21.1°C 70.1°F21.2°C 68.2°F20.1°C 69.5°F20.8°C
Winds 5.4 mph E8.7 kmh E 13.0 mph E20.9 kmh E - 7.9 mph 12.7 kmh
Wind Gusts 9.8 mph15.8 kmh 20.6 mph33.2 kmh - -
Humidity 81% 81% 69% 76%
Pressure 29.86 in1011.2 mb 29.90 in1012.5 mb 29.85 in1010.8 mb -
Hour Temp Dew Point Humidity Winds Wind Gusts Pressure Precip Precip Rate Daily Precip Total
04:20 AM 76.1°F24.5°C 69.9°F21.1°C 81% 5.4 mph E8.7 kmh E 9.8 mph15.8 kmh 29.86 in1011.2 mb 0.00 in0.0 mm 0.00 in0.0 mm 0.00 in0.0 mm
04:15 AM 76.1°F24.5°C 69.9°F21.1°C 81% 3.8 mph E6.1 kmh E 9.2 mph14.8 kmh 29.85 in1010.8 mb 0.00 in0.0 mm 0.00 in0.0 mm 0.00 in0.0 mm
04:10 AM 76.3°F24.6°C 69.7°F20.9°C 80% 4.5 mph E7.2 kmh E 11.4 mph18.3 kmh 29.86 in1011.2 mb 0.00 in0.0 mm 0.00 in0.0 mm 0.00 in0.0 mm
04:05 AM 76.3°F24.6°C 70.1°F21.2°C 81% 4.5 mph E7.2 kmh E 11.4 mph18.3 kmh 29.86 in1011.2 mb 0.00 in0.0 mm 0.00 in0.0 mm 0.00 in0.0 mm
04:00 AM 76.3°F24.6°C 69.7°F20.9°C 80% 6.9 mph E11.1 kmh E 11.4 mph18.3 kmh 29.86 in1011.2 mb 0.00 in0.0 mm 0.00 in0.0 mm 0.00 in0.0 mm
03:55 AM 76.3°F24.6°C 69.7°F20.9°C 80% 4.5 mph E7.2 kmh E 10.7 mph17.2 kmh 29.85 in1010.8 mb 0.00 in0.0 mm 0.00 in0.0 mm 0.00 in0.0 mm
03:50 AM 76.3°F24.6°C 69.7°F20.9°C 80% 5.4 mph E8.7 kmh E 10.7 mph17.2 kmh 29.85 in1010.8 mb 0.00 in0.0 mm 0.00 in0.0 mm 0.00 in0.0 mm
03:45 AM 76.5°F24.7°C 69.9°F21.1°C 80% 6.0 mph E9.7 kmh E 9.8 mph15.8 kmh 29.86 in1011.2 mb 0.00 in0.0 mm 0.00 in0.0 mm 0.00 in0.0 mm
03:40 AM 76.5°F24.7°C 69.9°F21.1°C 80% 3.8 mph E6.1 kmh E 10.7 mph17.2 kmh 29.86 in1011.2 mb 0.00 in0.0 mm 0.00 in0.0 mm 0.00 in0.0 mm
03:35 AM 76.5°F24.7°C 69.5°F20.8°C 79% 6.0 mph E9.7 kmh E 10.7 mph17.2 kmh 29.85 in1010.8 mb 0.00 in0.0 mm 0.00 in0.0 mm 0.00 in0.0 mm
03:30 AM 76.6°F24.8°C 69.7°F20.9°C 79% 6.0 mph E9.7 kmh E 12.1 mph19.5 kmh 29.85 in1010.8 mb 0.00 in0.0 mm 0.00 in0.0 mm 0.00 in0.0 mm
03:25 AM 76.6°F24.8°C 69.7°F20.9°C 79% 6.9 mph E11.1 kmh E 12.1 mph19.5 kmh 29.86 in1011.2 mb 0.00 in0.0 mm 0.00 in0.0 mm 0.00 in0.0 mm
03:20 AM 76.8°F24.9°C 69.9°F21.1°C 79% 7.6 mph E12.2 kmh E 14.5 mph23.3 kmh 29.86 in1011.2 mb 0.00 in0.0 mm 0.00 in0.0 mm 0.00 in0.0 mm
03:15 AM 76.8°F24.9°C 69.9°F21.1°C 79% 7.6 mph E12.2 kmh E 14.5 mph23.3 kmh 29.86 in1011.2 mb 0.00 in0.0 mm 0.00 in0.0 mm 0.00 in0.0 mm
03:10 AM 76.8°F24.9°C 69.9°F21.1°C 79% 9.8 mph E15.8 kmh E 13.0 mph20.9 kmh 29.85 in1010.8 mb 0.00 in0.0 mm 0.00 in0.0 mm 0.00 in0.0 mm
03:05 AM 77.0°F25.0°C 69.7°F20.9°C 78% 8.3 mph E13.4 kmh E 13.0 mph20.9 kmh 29.86 in1011.2 mb 0.00 in0.0 mm 0.00 in0.0 mm 0.00 in0.0 mm
03:00 AM 77.0°F25.0°C 69.7°F20.9°C 78% 9.2 mph E14.8 kmh E 16.8 mph27.0 kmh 29.86 in1011.2 mb 0.00 in0.0 mm 0.00 in0.0 mm 0.00 in0.0 mm
02:55 AM 77.0°F25.0°C 69.7°F20.9°C 78% 12.1 mph E19.5 kmh E 16.8 mph27.0 kmh 29.86 in1011.2 mb 0.00 in0.0 mm 0.00 in0.0 mm 0.00 in0.0 mm
02:50 AM 77.0°F25.0°C 69.7°F20.9°C 78% 9.2 mph E14.8 kmh E 13.6 mph21.9 kmh 29.86 in1011.2 mb 0.00 in0.0 mm 0.00 in0.0 mm 0.00 in0.0 mm
02:45 AM 77.2°F25.1°C 69.8°F21.0°C 78% 8.3 mph E13.4 kmh E 13.6 mph21.9 kmh 29.87 in1011.5 mb 0.00 in0.0 mm 0.00 in0.0 mm 0.00 in0.0 mm
02:40 AM 77.2°F25.1°C 69.8°F21.0°C 78% 7.6 mph E12.2 kmh E 13.6 mph21.9 kmh 29.87 in1011.5 mb 0.00 in0.0 mm 0.00 in0.0 mm 0.00 in0.0 mm
02:35 AM 77.2°F25.1°C 69.8°F21.0°C 78% 8.3 mph E13.4 kmh E 13.6 mph21.9 kmh 29.86 in1011.2 mb 0.00 in0.0 mm 0.00 in0.0 mm 0.00 in0.0 mm
02:30 AM 77.2°F25.1°C 69.8°F21.0°C 78% 5.4 mph E8.7 kmh E 11.4 mph18.3 kmh 29.87 in1011.5 mb 0.00 in0.0 mm 0.00 in0.0 mm 0.00 in0.0 mm
02:25 AM 77.4°F25.2°C 70.0°F21.1°C 78% 5.4 mph E8.7 kmh E 11.4 mph18.3 kmh 29.87 in1011.5 mb 0.00 in0.0 mm 0.00 in0.0 mm 0.00 in0.0 mm
02:20 AM 77.4°F25.2°C 69.6°F20.9°C 77% 6.0 mph E9.7 kmh E 13.6 mph21.9 kmh 29.86 in1011.2 mb 0.00 in0.0 mm 0.00 in0.0 mm 0.00 in0.0 mm
02:15 AM 77.5°F25.3°C 69.8°F21.0°C 77% 5.4 mph E8.7 kmh E 15.9 mph25.6 kmh 29.87 in1011.5 mb 0.00 in0.0 mm 0.00 in0.0 mm 0.00 in0.0 mm
02:10 AM 77.7°F25.4°C 70.0°F21.1°C 77% 10.7 mph E17.2 kmh E 15.9 mph25.6 kmh 29.87 in1011.5 mb 0.00 in0.0 mm 0.00 in0.0 mm 0.00 in0.0 mm
02:05 AM 77.5°F25.3°C 69.8°F21.0°C 77% 8.3 mph E13.4 kmh E 13.0 mph20.9 kmh 29.87 in1011.5 mb 0.00 in0.0 mm 0.00 in0.0 mm 0.00 in0.0 mm
02:00 AM 77.5°F25.3°C 69.4°F20.8°C 76% 6.0 mph E9.7 kmh E 9.8 mph15.8 kmh 29.87 in1011.5 mb 0.00 in0.0 mm 0.00 in0.0 mm 0.00 in0.0 mm
01:55 AM 77.7°F25.4°C 69.6°F20.9°C 76% 6.9 mph E11.1 kmh E 13.0 mph20.9 kmh 29.88 in1011.9 mb 0.00 in0.0 mm 0.00 in0.0 mm 0.00 in0.0 mm
01:50 AM 77.7°F25.4°C 69.2°F20.7°C 75% 4.5 mph E7.2 kmh E 13.6 mph21.9 kmh 29.88 in1011.9 mb 0.00 in0.0 mm 0.00 in0.0 mm 0.00 in0.0 mm
01:45 AM 77.9°F25.5°C 69.4°F20.8°C 75% 9.2 mph E14.8 kmh E 15.2 mph24.5 kmh 29.88 in1011.9 mb 0.00 in0.0 mm 0.00 in0.0 mm 0.00 in0.0 mm
01:40 AM 77.5°F25.3°C 68.6°F20.3°C 74% 8.3 mph E13.4 kmh E 15.9 mph25.6 kmh 29.88 in1011.9 mb 0.00 in0.0 mm 0.00 in0.0 mm 0.00 in0.0 mm
01:35 AM 78.1°F25.6°C 69.2°F20.7°C 74% 9.2 mph E14.8 kmh E 15.9 mph25.6 kmh 29.88 in1011.9 mb 0.00 in0.0 mm 0.00 in0.0 mm 0.00 in0.0 mm
01:30 AM 78.1°F25.6°C 69.2°F20.7°C 74% 9.2 mph E14.8 kmh E 15.9 mph25.6 kmh 29.88 in1011.9 mb 0.00 in0.0 mm 0.00 in0.0 mm 0.00 in0.0 mm
01:25 AM 78.1°F25.6°C 69.2°F20.7°C 74% 8.3 mph E13.4 kmh E 15.9 mph25.6 kmh 29.88 in1011.9 mb 0.00 in0.0 mm 0.00 in0.0 mm 0.00 in0.0 mm
01:20 AM 78.3°F25.7°C 69.3°F20.7°C 74% 11.4 mph E18.3 kmh E 15.9 mph25.6 kmh 29.88 in1011.9 mb 0.00 in0.0 mm 0.00 in0.0 mm 0.00 in0.0 mm
01:15 AM 78.1°F25.6°C 69.2°F20.7°C 74% 9.2 mph E14.8 kmh E 14.5 mph23.3 kmh 29.88 in1011.9 mb 0.00 in0.0 mm 0.00 in0.0 mm 0.00 in0.0 mm
01:10 AM 77.5°F25.3°C 68.2°F20.1°C 73% 8.3 mph E13.4 kmh E 14.5 mph23.3 kmh 29.88 in1011.9 mb 0.00 in0.0 mm 0.00 in0.0 mm 0.00 in0.0 mm
01:05 AM 78.4°F25.8°C 69.1°F20.6°C 73% 6.0 mph E9.7 kmh E 13.6 mph21.9 kmh 29.89 in1012.2 mb 0.00 in0.0 mm 0.00 in0.0 mm 0.00 in0.0 mm
01:00 AM 78.6°F25.9°C 69.3°F20.7°C 73% 7.6 mph E12.2 kmh E 15.2 mph24.5 kmh 29.88 in1011.9 mb 0.00 in0.0 mm 0.00 in0.0 mm 0.00 in0.0 mm
12:55 AM 78.8°F26.0°C 69.5°F20.8°C 73% 9.2 mph E14.8 kmh E 19.0 mph30.6 kmh 29.88 in1011.9 mb 0.00 in0.0 mm 0.00 in0.0 mm 0.00 in0.0 mm
12:50 AM 78.8°F26.0°C 69.1°F20.6°C 72% 10.7 mph E17.2 kmh E 19.0 mph30.6 kmh 29.88 in1011.9 mb 0.00 in0.0 mm 0.00 in0.0 mm 0.00 in0.0 mm
12:45 AM 79.0°F26.1°C 69.2°F20.7°C 72% 10.7 mph E17.2 kmh E 20.6 mph33.2 kmh 29.89 in1012.2 mb 0.00 in0.0 mm 0.00 in0.0 mm 0.00 in0.0 mm
12:40 AM 79.0°F26.1°C 69.2°F20.7°C 72% 10.7 mph E17.2 kmh E 20.6 mph33.2 kmh 29.89 in1012.2 mb 0.00 in0.0 mm 0.00 in0.0 mm 0.00 in0.0 mm
12:35 AM 79.2°F26.2°C 69.4°F20.8°C 72% 9.2 mph E14.8 kmh E 16.8 mph27.0 kmh 29.89 in1012.2 mb 0.00 in0.0 mm 0.00 in0.0 mm 0.00 in0.0 mm
12:30 AM 79.2°F26.2°C 69.0°F20.6°C 71% 13.0 mph E20.9 kmh E 15.9 mph25.6 kmh 29.89 in1012.2 mb 0.00 in0.0 mm 0.00 in0.0 mm 0.00 in0.0 mm
12:25 AM 79.3°F26.3°C 69.2°F20.7°C 71% 6.0 mph E9.7 kmh E 15.9 mph25.6 kmh 29.90 in1012.5 mb 0.00 in0.0 mm 0.00 in0.0 mm 0.00 in0.0 mm
12:20 AM 79.5°F26.4°C 68.9°F20.5°C 70% 11.4 mph E18.3 kmh E 14.5 mph23.3 kmh 29.89 in1012.2 mb 0.00 in0.0 mm 0.00 in0.0 mm 0.00 in0.0 mm
12:15 AM 79.5°F26.4°C 68.9°F20.5°C 70% 10.7 mph E17.2 kmh E 19.0 mph30.6 kmh 29.89 in1012.2 mb 0.00 in0.0 mm 0.00 in0.0 mm 0.00 in0.0 mm
12:10 AM 79.7°F26.5°C 69.1°F20.6°C 70% 8.3 mph E13.4 kmh E 19.0 mph30.6 kmh 29.90 in1012.5 mb 0.00 in0.0 mm 0.00 in0.0 mm 0.00 in0.0 mm
12:05 AM 79.7°F26.5°C 68.7°F20.4°C 69% 9.8 mph E15.8 kmh E 16.8 mph27.0 kmh 29.90 in1012.5 mb 0.00 in0.0 mm 0.00 in0.0 mm 0.00 in0.0 mm
12:00 AM 79.9°F26.6°C 68.8°F20.4°C 69% 10.7 mph E17.2 kmh E 16.8 mph27.0 kmh 29.89 in1012.2 mb 0.00 in0.0 mm 0.00 in0.0 mm 0.02 in0.5 mm